• Join FlightAware (Why Join?)
  • Login
  • US Flag 
01:08PM EDT


 

Airport Tracker/Info


-or-


 

Live Flight TrackerFlight Track Log ✈ ASQ5685 ✈ 10-Dec-2013 ✈ KATL - KIAD

Flight Track Log - Related Links

Times and Time Zones

All times are in EST time to prevent confusion due to time zone crossing. See the ASQ5685 flight status page for this flight to view local times or setup timezone preferences in your user account.

Time Position Orientation Groundspeed Altitude Reporting Facility
EST Latitude Longitude Course Direction KTS MPH feet Rate Location/Type
11:20AM 33.6333 -84.4667 70° East 151 174 2,600  Level Atlanta TRACON
11:21AM 33.6000 -84.5333 239° Southwest 245 282 4,100 2,100 Climbing Atlanta TRACON
11:22AM 33.5500 -84.5833 220° Southwest 286 329 6,800 2,640 Climbing Atlanta TRACON
11:23AM 33.9861 -84.0117 53° Northeast  Level Estimated
11:23AM 33.4614 -84.5542 165° South 280 322 10,100  Level Atlanta Center
11:24AM 34.0279 -83.8723 70° East  Level FlightAware Approximate
11:24AM 33.4533 -84.4222 94° East 300 345 11,300  Level Atlanta Center
11:25AM 34.0695 -83.7327 70° East  Level FlightAware Approximate
11:25AM 33.4725 -84.2803 81° East 398 458 12,300  Level Atlanta Center
11:26AM 33.5750 -84.1983 34° Northeast 377 434 13,400 1,200 Climbing Atlanta Center
11:27AM 33.6836 -84.1261 29° Northeast 415 478 14,700 1,320 Climbing Atlanta Center
11:28AM 33.7733 -84.0214 44° Northeast 436 502 16,100 1,140 Climbing Atlanta Center
11:29AM 33.8400 -83.8911 58° Northeast 443 510 17,000 720 Climbing Atlanta Center
11:30AM 33.9128 -83.7508 58° Northeast 467 537 17,600 840 Climbing Atlanta Center
11:31AM 33.9897 -83.6203 55° Northeast 486 559 18,700 1,200 Climbing Atlanta Center
11:32AM 34.0706 -83.4897 53° Northeast 481 554 20,000 3,120 Climbing Atlanta Center
11:33AM 34.1556 -83.3636 51° Northeast 481 554 25,000 900 Climbing Atlanta Center
11:34AM 34.2342 -83.2297 55° Northeast 481 554 21,800 -1,200 Descending Atlanta Center
11:35AM 34.3167 -83.1006 52° Northeast 489 563 22,600 780 Climbing Atlanta Center
11:36AM 34.3989 -82.9639 54° Northeast 489 563 23,400 720 Climbing Atlanta Center
11:37AM 34.4731 -82.8444 53° Northeast 484 557 24,100 720 Climbing Atlanta Center
11:38AM 34.5572 -82.7069 53° Northeast 489 563 24,900 420 Climbing Atlanta Center
11:39AM 34.6494 -82.5592 53° Northeast 496 571 25,000  Climbing Atlanta Center
11:40AM 34.7372 -82.4161 53° Northeast 508 585 25,000  Level Atlanta Center
11:41AM 34.8292 -82.2650 53° Northeast 524 603 25,000  Level Atlanta Center
11:42AM 34.9186 -82.1161 54° Northeast 536 617 25,000  Level Atlanta Center
11:43AM 35.0122 -81.9694 52° Northeast 549 632 25,000  Level Atlanta Center
11:44AM 35.0992 -81.8097 56° Northeast 549 632 25,000  Level Atlanta Center
11:45AM 35.1794 -81.6450 59° Northeast 559 643 25,000  Level Atlanta Center
11:46AM 35.2703 -81.4847 55° Northeast 564 649 25,000  Level Atlanta Center
11:47AM 35.3522 -81.3242 58° Northeast 564 649 25,000  Level Atlanta Center
11:48AM 35.4381 -81.1533 58° Northeast 569 655 25,000  Level Atlanta Center
11:49AM 35.5139 -81.0050 58° Northeast 578 665 25,000  Level Atlanta Center
11:50AM 35.5994 -80.8411 57° Northeast 578 665 25,000  Level Atlanta Center
11:51AM 35.6947 -80.6633 57° Northeast 573 659 25,000  Level Atlanta Center
11:53AM 35.8614 -80.3436 57° Northeast 558 642 25,000  Level Washington Center
11:54AM 35.9472 -80.1769 58° Northeast 558 642 25,000  Level Washington Center
11:55AM 36.0306 -80.0097 58° Northeast 563 648 25,000  Level Washington Center
11:56AM 36.1222 -79.8478 55° Northeast 563 648 25,000  Level Washington Center
11:57AM 36.2114 -79.6853 56° Northeast 587 676 25,000  Level Washington Center
11:58AM 36.3064 -79.5200 54° Northeast 574 661 25,000  Level Washington Center
11:59AM 36.3883 -79.3772 54° Northeast 574 661 25,000 -60 Level Washington Center
12:00PM 36.4972 -79.2300 47° Northeast 569 655 24,900 -360 Descending Washington Center
12:01PM 36.6100 -79.0850 46° Northeast 569 655 24,400 -480 Descending Washington Center
12:02PM 36.7339 -78.9169 47° Northeast 588 677 24,000 -240 Descending Washington Center
12:03PM 36.8442 -78.7686 47° Northeast 583 671 24,000  Level Washington Center
12:04PM 36.9544 -78.6197 47° Northeast 583 671 24,000  Level Washington Center
12:05PM 37.0517 -78.4858 48° Northeast 583 671 24,000  Level Washington Center
12:06PM 37.1636 -78.3389 46° Northeast 583 671 24,000  Level Washington Center
12:07PM 37.2933 -78.2261 35° Northeast 567 652 24,000 -180 Level Washington Center
12:08PM 37.4336 -78.1028 35° Northeast 567 652 23,700  Descending Washington Center
12:09PM 37.5633 -77.9889 35° Northeast 562 647 24,000 -2,460 Climbing Washington Center
12:10PM 37.6883 -77.8803 35° Northeast 557 641 18,900 -3,900 Descending Washington Center
12:11PM 37.8114 -77.7733 34° Northeast 545 627 16,200 -2,760 Descending Washington Center
12:12PM 37.9281 -77.6717 34° Northeast 534 615 13,400 -2,580 Descending Washington Center
12:13PM 38.0358 -77.5797 34° Northeast 503 579 11,100 -1,680 Descending Washington Center
12:14PM 38.1331 -77.4925 35° Northeast 452 520 10,100 -600 Descending Washington Center
12:15PM 38.2175 -77.4336 29° Northeast 400 460 10,000 -660 Descending Washington Center
12:16PM 38.2967 -77.4331 360° North 310 357 8,800 -1,200 Descending Washington Center
12:17PM 38.3781 -77.4403 356° North 294 338 7,600 -1,080 Descending Washington Center
12:18PM 38.4508 -77.4447 357° North 278 320 6,700 -1,140 Descending Washington Center
12:19PM 38.5236 -77.4519 356° North 262 302 5,400 -840 Descending Washington Center
12:20PM 38.5967 -77.4617 354° North 262 302 5,000 -240 Descending Washington Center
12:21PM 38.6667 -77.4667 357° North 260 299 5,000 -60 Level Potomac TRACON
12:22PM 38.7333 -77.4667 360° North 228 262 4,900 -780 Descending Potomac TRACON
12:23PM 38.7833 -77.4667 360° North 195 224 3,600 -1,140 Descending Potomac TRACON
12:24PM 38.8333 -77.4667 360° North 162 186 2,700 -900 Descending Potomac TRACON
12:25PM 38.8667 -77.4667 360° North 146 168 1,800 -900 Descending Potomac TRACON
12:26PM 38.9000 -77.4667 360° North 131 151 1,000 -840 Descending Potomac TRACON